Time;durP1;ratioP1;P1;durP2;ratioP2;P2;SDS_P1;SDS_P2;PMS_P1;PMS_P2;Temp;Humidity;BMP_temperature;BMP_pressure;BME280_temperature;BME280_humidity;BME280_pressure;Samples;Min_cycle;Max_cycle;Signal;HPM_P1;HPM_P2
2023/05/04 00:02:09;;;;;;;;;;;15.20;99.90;;;;;;5097232;28;19989;-61
2023/05/04 00:04:34;;;;;;;;;;;15.20;99.90;;;;;;5096872;28;20343;-62
2023/05/04 00:07:00;;;;;;;;;;;15.20;99.90;;;;;;5096727;28;19992;-61
2023/05/04 00:09:26;;;;;;;;;;;15.10;99.90;;;;;;5097158;28;20462;-61
2023/05/04 00:11:51;;;;;;;;;;;15.10;99.90;;;;;;5096792;28;20469;-61
2023/05/04 00:14:17;;;;;;;;;;;15.20;99.90;;;;;;5096740;28;19996;-61
2023/05/04 00:16:42;;;;;;;;;;;15.20;99.90;;;;;;5096680;28;19985;-62
2023/05/04 00:19:08;;;;;;;;;;;15.10;99.90;;;;;;5096581;28;20051;-61
2023/05/04 00:21:34;;;;;;;;;;;15.20;99.90;;;;;;5096356;28;19996;-61
2023/05/04 00:24:01;;;;;;;;;;;15.20;99.90;;;;;;5096744;28;19985;-60
2023/05/04 00:26:26;;;;;;;;;;;15.30;99.90;;;;;;5096818;28;19988;-61
2023/05/04 00:28:52;;;;;;;;;;;15.30;99.90;;;;;;5096451;28;20011;-61
2023/05/04 00:31:18;;;;;;;;;;;15.40;99.90;;;;;;5096437;28;19993;-61
2023/05/04 00:33:44;;;;;;;;;;;15.40;99.90;;;;;;5096446;28;19985;-60
2023/05/04 00:36:10;;;;;;;;;;;15.40;99.90;;;;;;5096077;28;19985;-61
2023/05/04 00:38:48;;;;;;;;;;;15.40;99.90;;;;;;5095916;28;20024;-61
2023/05/04 00:41:15;;;;;;;;;;;15.40;99.90;;;;;;5096267;28;20080;-61
2023/05/04 00:43:40;;;;;;;;;;;15.40;99.90;;;;;;5095098;28;20020;-61
2023/05/04 00:46:06;;;;;;;;;;;15.30;99.90;;;;;;5096431;28;20031;-61
2023/05/04 00:48:32;;;;;;;;;;;15.20;99.90;;;;;;5096136;28;19985;-61
2023/05/04 00:50:57;;;;;;;;;;;14.90;99.90;;;;;;5096101;28;19992;-61
2023/05/04 00:53:23;;;;;;;;;;;14.80;99.90;;;;;;5096290;28;20446;-61
2023/05/04 00:55:49;;;;;;;;;;;14.60;99.90;;;;;;5096072;28;19985;-61
2023/05/04 00:58:14;;;;;;;;;;;14.70;99.90;;;;;;5096059;28;20009;-61
2023/05/04 01:00:40;;;;;;;;;;;14.80;99.90;;;;;;5095997;28;19985;-61
2023/05/04 01:03:08;;;;;;;;;;;15.00;99.90;;;;;;5095834;28;19992;-61
2023/05/04 01:05:35;;;;;;;;;;;15.00;99.90;;;;;;5095471;28;20042;-61
2023/05/04 01:08:08;;;;;;;;;;;15.10;99.90;;;;;;5095916;28;20389;-61
2023/05/04 01:10:37;;;;;;;;;;;15.10;99.90;;;;;;5095690;28;19998;-61
2023/05/04 01:13:05;;;;;;;;;;;15.20;99.90;;;;;;5095522;28;19995;-62
2023/05/04 01:15:31;;;;;;;;;;;15.00;99.90;;;;;;5095714;28;19985;-61
2023/05/04 01:17:56;;;;;;;;;;;14.80;99.90;;;;;;5095477;28;20050;-61
2023/05/04 01:20:22;;;;;;;;;;;14.80;99.90;;;;;;5095493;28;19988;-61
2023/05/04 01:22:48;;;;;;;;;;;14.80;99.90;;;;;;5095703;28;19989;-61
2023/05/04 01:25:13;;;;;;;;;;;14.80;99.90;;;;;;5095468;28;19985;-61
2023/05/04 01:27:44;;;;;;;;;;;14.90;99.90;;;;;;5095331;28;19985;-61
2023/05/04 01:30:15;;;;;;;;;;;14.90;99.90;;;;;;5095299;28;20067;-61
2023/05/04 01:32:41;;;;;;;;;;;14.90;99.90;;;;;;5095580;28;20458;-61
2023/05/04 01:35:08;;;;;;;;;;;14.80;99.90;;;;;;5095185;28;20030;-61
2023/05/04 01:37:33;;;;;;;;;;;14.70;99.90;;;;;;5095128;28;20009;-61
2023/05/04 01:39:59;;;;;;;;;;;14.70;99.90;;;;;;5095032;28;20024;-61
2023/05/04 01:42:24;;;;;;;;;;;14.60;99.90;;;;;;5095023;28;19989;-61
2023/05/04 01:44:50;;;;;;;;;;;14.70;99.90;;;;;;5095100;28;19985;-60
2023/05/04 01:47:16;;;;;;;;;;;14.70;99.90;;;;;;5094790;28;20068;-61
2023/05/04 01:49:41;;;;;;;;;;;14.80;99.90;;;;;;5094858;28;19993;-61
2023/05/04 01:52:07;;;;;;;;;;;14.80;99.90;;;;;;5094806;28;19986;-61
2023/05/04 01:54:32;;;;;;;;;;;14.80;99.90;;;;;;5094810;28;20021;-61
2023/05/04 01:56:58;;;;;;;;;;;14.80;99.90;;;;;;5095126;28;20000;-61
2023/05/04 01:59:24;;;;;;;;;;;14.80;99.90;;;;;;5094572;28;20012;-61
2023/05/04 02:01:49;;;;;;;;;;;14.80;99.90;;;;;;5094567;28;20332;-62
2023/05/04 02:04:15;;;;;;;;;;;14.90;99.90;;;;;;5094723;28;20051;-61
2023/05/04 02:06:40;;;;;;;;;;;14.90;99.90;;;;;;5094823;28;19989;-61
2023/05/04 02:09:06;;;;;;;;;;;15.00;99.90;;;;;;5094539;28;19989;-61
2023/05/04 02:11:31;;;;;;;;;;;15.00;99.90;;;;;;5094512;28;20439;-61
2023/05/04 02:13:57;;;;;;;;;;;15.00;99.90;;;;;;5094454;28;20047;-61
2023/05/04 02:16:22;;;;;;;;;;;15.00;99.90;;;;;;5094515;28;19989;-61
2023/05/04 02:18:48;;;;;;;;;;;14.90;99.90;;;;;;5094340;28;20015;-61
2023/05/04 02:21:13;;;;;;;;;;;14.80;99.90;;;;;;5094406;28;20461;-61
2023/05/04 02:23:39;;;;;;;;;;;14.80;99.90;;;;;;5094582;28;20367;-61
2023/05/04 02:26:05;;;;;;;;;;;14.80;99.90;;;;;;5094341;28;20332;-61
2023/05/04 02:28:31;;;;;;;;;;;14.90;99.90;;;;;;5094336;28;20079;-61
2023/05/04 02:30:56;;;;;;;;;;;14.80;99.90;;;;;;5093975;28;20479;-60
2023/05/04 02:33:22;;;;;;;;;;;14.80;99.90;;;;;;5094438;28;19988;-61
2023/05/04 02:35:47;;;;;;;;;;;14.80;99.90;;;;;;5094068;28;20397;-61
2023/05/04 02:38:13;;;;;;;;;;;14.80;99.90;;;;;;5093757;28;20016;-61
2023/05/04 02:40:38;;;;;;;;;;;14.80;99.90;;;;;;5094094;28;20354;-61
2023/05/04 02:43:04;;;;;;;;;;;14.80;99.90;;;;;;5094027;28;20396;-61
2023/05/04 02:45:29;;;;;;;;;;;14.90;99.90;;;;;;5093835;28;19985;-61
2023/05/04 02:47:55;;;;;;;;;;;14.90;99.90;;;;;;5093927;28;19989;-61
2023/05/04 02:50:21;;;;;;;;;;;14.80;99.90;;;;;;5093921;28;20020;-60
2023/05/04 02:52:46;;;;;;;;;;;14.90;99.90;;;;;;5093942;28;20385;-60
2023/05/04 02:55:12;;;;;;;;;;;14.90;99.90;;;;;;5093831;28;19989;-61
2023/05/04 02:57:37;;;;;;;;;;;14.80;99.90;;;;;;5093778;28;20054;-61
2023/05/04 03:00:05;;;;;;;;;;;14.80;99.90;;;;;;5093661;28;20083;-61
2023/05/04 03:02:31;;;;;;;;;;;14.80;99.90;;;;;;5093742;28;20448;-61
2023/05/04 03:04:56;;;;;;;;;;;14.70;99.90;;;;;;5093779;28;20114;-61
2023/05/04 03:07:22;;;;;;;;;;;14.80;99.90;;;;;;5099310;28;20125;-61
2023/05/04 03:09:47;;;;;;;;;;;14.70;99.90;;;;;;5100387;28;20220;-61
2023/05/04 03:12:13;;;;;;;;;;;14.70;99.90;;;;;;5100483;28;20435;-61
2023/05/04 03:14:38;;;;;;;;;;;14.70;99.90;;;;;;5100525;28;19993;-61
2023/05/04 03:17:04;;;;;;;;;;;14.60;99.90;;;;;;5100474;28;19985;-61
2023/05/04 03:19:29;;;;;;;;;;;14.50;99.90;;;;;;5100208;28;20005;-61
2023/05/04 03:21:55;;;;;;;;;;;14.60;99.90;;;;;;5100398;28;20031;-61
2023/05/04 03:24:21;;;;;;;;;;;14.60;99.90;;;;;;5100403;28;19988;-61
2023/05/04 03:26:46;;;;;;;;;;;14.50;99.90;;;;;;5100245;28;20035;-61
2023/05/04 03:29:12;;;;;;;;;;;14.60;99.90;;;;;;5100426;28;20336;-61
2023/05/04 03:31:38;;;;;;;;;;;14.50;99.90;;;;;;5100514;28;20350;-61
2023/05/04 03:34:03;;;;;;;;;;;14.40;99.90;;;;;;5100178;28;19989;-62
2023/05/04 03:36:29;;;;;;;;;;;14.30;99.90;;;;;;5100293;28;20520;-61
2023/05/04 03:38:54;;;;;;;;;;;14.20;99.90;;;;;;5099910;28;20021;-61
2023/05/04 03:41:20;;;;;;;;;;;14.00;99.90;;;;;;5100129;28;19992;-61
2023/05/04 03:43:45;;;;;;;;;;;14.00;99.90;;;;;;5100034;28;19989;-61
2023/05/04 03:46:11;;;;;;;;;;;14.00;99.90;;;;;;5100142;28;19988;-61
2023/05/04 03:48:37;;;;;;;;;;;14.10;99.90;;;;;;5100171;28;19991;-61
2023/05/04 03:51:03;;;;;;;;;;;14.20;99.90;;;;;;5099994;28;20102;-61
2023/05/04 03:53:29;;;;;;;;;;;14.30;99.90;;;;;;5100126;28;20032;-60
2023/05/04 03:55:54;;;;;;;;;;;14.30;99.90;;;;;;5100338;28;20075;-61
2023/05/04 03:58:20;;;;;;;;;;;14.40;99.90;;;;;;5099770;28;20516;-61
2023/05/04 04:00:46;;;;;;;;;;;14.40;99.90;;;;;;5099976;28;20054;-61
2023/05/04 04:03:11;;;;;;;;;;;14.50;99.90;;;;;;5099991;28;19991;-61
2023/05/04 04:05:37;;;;;;;;;;;14.50;99.90;;;;;;5099886;28;20012;-61
2023/05/04 04:08:02;;;;;;;;;;;14.50;99.90;;;;;;5100025;28;20431;-61
2023/05/04 04:10:29;;;;;;;;;;;14.50;99.90;;;;;;5099964;28;20016;-61
2023/05/04 04:12:55;;;;;;;;;;;14.60;99.90;;;;;;5099729;28;19989;-61
2023/05/04 04:15:20;;;;;;;;;;;14.70;99.90;;;;;;5099908;28;20328;-61
2023/05/04 04:17:46;;;;;;;;;;;14.70;99.90;;;;;;5098749;28;20032;-61
2023/05/04 04:20:12;;;;;;;;;;;14.70;99.90;;;;;;5096761;28;20378;-61
2023/05/04 04:22:38;;;;;;;;;;;14.70;99.90;;;;;;5096608;28;20085;-62
2023/05/04 04:25:03;;;;;;;;;;;14.70;99.90;;;;;;5096728;28;20030;-61
2023/05/04 04:27:29;;;;;;;;;;;14.70;99.90;;;;;;5096542;28;19989;-61
2023/05/04 04:29:56;;;;;;;;;;;14.80;99.90;;;;;;5095172;28;20409;-61
2023/05/04 04:32:21;;;;;;;;;;;14.80;99.90;;;;;;5096448;28;20389;-61
2023/05/04 04:34:47;;;;;;;;;;;14.80;99.90;;;;;;5096363;28;19996;-61
2023/05/04 04:37:12;;;;;;;;;;;14.80;99.90;;;;;;5096252;28;20005;-61
2023/05/04 04:39:38;;;;;;;;;;;14.80;99.90;;;;;;5096222;28;20074;-61
2023/05/04 04:42:03;;;;;;;;;;;14.90;99.90;;;;;;5096086;28;20071;-61
2023/05/04 04:44:29;;;;;;;;;;;14.80;99.90;;;;;;5096130;28;19985;-61
2023/05/04 04:46:55;;;;;;;;;;;14.80;99.90;;;;;;5096238;28;19996;-62
2023/05/04 04:49:20;;;;;;;;;;;14.90;99.90;;;;;;5096147;28;19988;-61
2023/05/04 04:51:47;;;;;;;;;;;15.00;99.90;;;;;;5096104;28;20359;-61
2023/05/04 04:54:13;;;;;;;;;;;15.00;99.90;;;;;;5095920;28;20351;-61
2023/05/04 04:56:43;;;;;;;;;;;15.00;99.90;;;;;;5095231;28;19989;-61
2023/05/04 04:59:09;;;;;;;;;;;15.00;99.90;;;;;;5095770;28;20012;-61
2023/05/04 05:01:35;;;;;;;;;;;15.10;99.90;;;;;;5095769;28;20029;-61
2023/05/04 05:04:00;;;;;;;;;;;15.20;99.90;;;;;;5095745;28;20084;-63
2023/05/04 05:06:26;;;;;;;;;;;15.30;99.90;;;;;;5094726;28;19993;-61
2023/05/04 05:08:52;;;;;;;;;;;15.30;99.90;;;;;;5095209;28;19985;-61
2023/05/04 05:11:17;;;;;;;;;;;15.40;99.90;;;;;;5095306;28;20031;-62
2023/05/04 05:13:43;;;;;;;;;;;15.30;99.90;;;;;;5095680;28;20079;-61
2023/05/04 05:16:08;;;;;;;;;;;15.20;99.90;;;;;;5094986;28;19993;-60
2023/05/04 05:18:34;;;;;;;;;;;15.20;99.90;;;;;;5095413;28;20004;-62
2023/05/04 05:20:59;;;;;;;;;;;15.20;99.90;;;;;;5095577;28;19989;-62
2023/05/04 05:23:25;;;;;;;;;;;15.30;99.90;;;;;;5095130;28;19988;-63
2023/05/04 05:25:52;;;;;;;;;;;15.40;99.90;;;;;;5094484;28;20072;-63
2023/05/04 05:28:17;;;;;;;;;;;15.40;99.90;;;;;;5090854;28;19991;-64
2023/05/04 05:30:43;;;;;;;;;;;15.40;99.90;;;;;;5093987;28;19985;-61
2023/05/04 05:33:09;;;;;;;;;;;15.40;99.90;;;;;;5094652;28;20354;-63
2023/05/04 05:35:35;;;;;;;;;;;15.50;99.90;;;;;;5093817;28;19992;-64
2023/05/04 05:38:01;;;;;;;;;;;15.50;99.90;;;;;;5092963;28;20012;-60
2023/05/04 05:40:27;;;;;;;;;;;15.50;99.90;;;;;;5092797;28;20023;-63
2023/05/04 05:42:52;;;;;;;;;;;15.70;99.90;;;;;;5093472;28;19996;-63
2023/05/04 05:45:18;;;;;;;;;;;16.00;99.90;;;;;;5093617;28;20041;-62
2023/05/04 05:47:43;;;;;;;;;;;16.30;99.90;;;;;;5093402;28;20019;-63
2023/05/04 05:50:09;;;;;;;;;;;16.50;99.90;;;;;;5093452;28;20332;-61
2023/05/04 05:52:35;;;;;;;;;;;16.40;99.90;;;;;;5093150;28;19993;-59
2023/05/04 05:55:01;;;;;;;;;;;16.40;99.90;;;;;;5093481;28;19996;-63
2023/05/04 05:57:26;;;;;;;;;;;16.70;99.90;;;;;;5094691;28;20026;-61
2023/05/04 05:59:52;;;;;;;;;;;16.90;99.90;;;;;;5093205;28;19989;-62
2023/05/04 06:02:17;;;;;;;;;;;17.10;99.90;;;;;;5093205;28;19992;-63
2023/05/04 06:04:45;;;;;;;;;;;17.20;99.90;;;;;;5093672;28;19999;-61
2023/05/04 06:07:12;;;;;;;;;;;17.20;99.90;;;;;;5093548;28;19985;-61
2023/05/04 06:09:38;;;;;;;;;;;17.30;99.90;;;;;;5093424;28;20328;-62
2023/05/04 06:12:05;;;;;;;;;;;17.30;99.90;;;;;;5093748;28;19989;-64
2023/05/04 06:14:31;;;;;;;;;;;17.30;99.90;;;;;;5093941;28;20080;-61
2023/05/04 06:16:57;;;;;;;;;;;17.20;99.90;;;;;;5094540;28;20021;-61
2023/05/04 06:19:23;;;;;;;;;;;17.10;99.90;;;;;;5093981;28;20074;-62
2023/05/04 06:21:48;;;;;;;;;;;17.10;99.90;;;;;;5093985;28;19997;-61
2023/05/04 06:24:15;;;;;;;;;;;17.10;99.90;;;;;;5084863;28;20611;-61
2023/05/04 06:26:40;;;;;;;;;;;17.10;99.90;;;;;;5089729;28;20024;-61
2023/05/04 06:29:06;;;;;;;;;;;17.10;99.90;;;;;;5101987;28;20087;-63
2023/05/04 06:31:31;;;;;;;;;;;17.10;99.90;;;;;;5104680;28;19989;-62
2023/05/04 06:33:57;;;;;;;;;;;17.00;99.90;;;;;;5084218;28;20523;-64
2023/05/04 06:36:24;;;;;;;;;;;16.90;99.90;;;;;;5076449;28;19998;-63
2023/05/04 06:38:50;;;;;;;;;;;16.80;99.90;;;;;;5080499;28;20054;-63
2023/05/04 06:41:16;;;;;;;;;;;17.00;99.90;;;;;;5075521;28;20412;-61
2023/05/04 06:43:41;;;;;;;;;;;17.20;99.90;;;;;;5091811;28;20040;-60
2023/05/04 06:46:07;;;;;;;;;;;17.40;99.90;;;;;;5092172;28;20036;-64
2023/05/04 06:48:33;;;;;;;;;;;17.70;99.90;;;;;;5091617;28;19989;-64
2023/05/04 06:50:58;;;;;;;;;;;18.00;99.90;;;;;;5087944;28;19997;-62
2023/05/04 06:53:24;;;;;;;;;;;18.30;99.90;;;;;;5091128;28;19997;-65
2023/05/04 06:55:49;;;;;;;;;;;18.30;99.90;;;;;;5092025;28;20397;-63
2023/05/04 06:58:16;;;;;;;;;;;18.40;99.90;;;;;;5092105;28;20009;-62
2023/05/04 07:00:41;;;;;;;;;;;18.30;99.90;;;;;;5080883;28;19993;-62
2023/05/04 07:03:07;;;;;;;;;;;18.30;99.90;;;;;;5086201;28;20666;-63
2023/05/04 07:05:34;;;;;;;;;;;18.50;99.90;;;;;;5090480;28;20098;-62
2023/05/04 07:08:00;;;;;;;;;;;18.60;99.90;;;;;;5091441;28;20007;-63
2023/05/04 07:10:27;;;;;;;;;;;18.70;99.90;;;;;;5087711;28;19989;-63
2023/05/04 07:12:52;;;;;;;;;;;19.30;99.90;;;;;;5088723;28;19985;-65
2023/05/04 07:15:18;;;;;;;;;;;20.30;98.40;;;;;;5090355;28;19995;-63
2023/05/04 07:17:45;;;;;;;;;;;20.60;94.60;;;;;;5090944;28;20030;-64
2023/05/04 07:20:11;;;;;;;;;;;21.50;90.70;;;;;;5090009;28;20435;-63
2023/05/04 07:22:36;;;;;;;;;;;22.00;77.70;;;;;;5090081;28;19985;-63
2023/05/04 07:25:02;;;;;;;;;;;22.20;78.20;;;;;;5091478;28;20443;-65
2023/05/04 07:27:28;;;;;;;;;;;22.70;71.30;;;;;;5092148;28;20494;-62
2023/05/04 07:29:54;;;;;;;;;;;22.10;69.10;;;;;;5090745;28;19984;-62
2023/05/04 07:32:19;;;;;;;;;;;21.50;71.90;;;;;;5090467;28;19997;-63
2023/05/04 07:34:45;;;;;;;;;;;21.00;78.60;;;;;;5090942;28;20034;-66
2023/05/04 07:37:11;;;;;;;;;;;20.70;81.00;;;;;;5092534;28;20012;-64
2023/05/04 07:39:37;;;;;;;;;;;20.40;83.00;;;;;;5081816;28;20066;-64
2023/05/04 07:42:03;;;;;;;;;;;20.20;86.50;;;;;;5072278;28;19985;-63
2023/05/04 07:44:30;;;;;;;;;;;20.00;91.10;;;;;;5069323;28;20313;-62
2023/05/04 07:46:58;;;;;;;;;;;20.00;92.30;;;;;;5070577;28;19989;-62
2023/05/04 07:49:24;;;;;;;;;;;19.90;92.70;;;;;;5083060;28;20397;-64
2023/05/04 07:51:50;;;;;;;;;;;19.70;94.20;;;;;;5087071;28;20035;-61
2023/05/04 07:54:15;;;;;;;;;;;19.80;93.20;;;;;;5092978;28;19984;-61
2023/05/04 07:56:41;;;;;;;;;;;19.70;94.40;;;;;;5092733;28;20059;-64
2023/05/04 07:59:06;;;;;;;;;;;20.10;92.60;;;;;;5089323;28;20054;-70
2023/05/04 08:01:32;;;;;;;;;;;20.20;91.70;;;;;;5093168;28;20034;-66
2023/05/04 08:03:58;;;;;;;;;;;20.20;91.60;;;;;;5089244;28;19993;-66
2023/05/04 08:06:23;;;;;;;;;;;20.10;91.90;;;;;;5078210;28;19989;-67
2023/05/04 08:08:49;;;;;;;;;;;19.60;96.20;;;;;;5088457;28;20501;-63
2023/05/04 08:11:15;;;;;;;;;;;19.20;99.90;;;;;;5092717;28;20092;-63
2023/05/04 08:13:40;;;;;;;;;;;18.90;99.90;;;;;;5085491;28;20051;-62
2023/05/04 08:16:08;;;;;;;;;;;19.00;99.90;;;;;;5088590;28;20075;-64
2023/05/04 08:18:33;;;;;;;;;;;19.10;99.90;;;;;;5094746;28;20095;-66
2023/05/04 08:20:59;;;;;;;;;;;19.20;99.90;;;;;;5095197;28;20032;-70
2023/05/04 08:23:24;;;;;;;;;;;19.20;99.90;;;;;;5094476;28;20042;-67
2023/05/04 08:25:51;;;;;;;;;;;19.30;99.90;;;;;;5096246;28;20068;-61
2023/05/04 08:28:17;;;;;;;;;;;19.10;99.90;;;;;;5082785;28;20085;-67
2023/05/04 08:30:42;;;;;;;;;;;18.90;99.90;;;;;;5075987;28;20036;-66
2023/05/04 08:33:09;;;;;;;;;;;18.80;99.90;;;;;;5081416;28;20706;-65
2023/05/04 08:35:36;;;;;;;;;;;18.80;99.90;;;;;;5093731;28;20317;-65
2023/05/04 08:38:02;;;;;;;;;;;18.90;99.90;;;;;;5093753;28;20702;-63
2023/05/04 08:40:28;;;;;;;;;;;18.90;99.90;;;;;;5093024;28;20406;-63
2023/05/04 08:42:54;;;;;;;;;;;18.90;99.90;;;;;;5098615;28;19995;-64
2023/05/04 08:45:20;;;;;;;;;;;19.10;99.90;;;;;;5097135;28;19996;-61
2023/05/04 08:47:46;;;;;;;;;;;19.10;99.90;;;;;;5085710;28;20000;-63
2023/05/04 08:50:12;;;;;;;;;;;19.30;99.90;;;;;;5093222;28;19992;-67
2023/05/04 08:52:42;;;;;;;;;;;19.50;99.90;;;;;;5088959;28;20011;-63
2023/05/04 08:55:10;;;;;;;;;;;19.70;99.90;;;;;;5088083;28;20354;-62
2023/05/04 08:57:36;;;;;;;;;;;19.70;99.90;;;;;;5083817;28;20385;-61
2023/05/04 09:00:04;;;;;;;;;;;19.60;99.90;;;;;;5084362;28;19989;-63
2023/05/04 09:02:31;;;;;;;;;;;19.50;99.90;;;;;;5079994;28;19989;-62
2023/05/04 09:04:57;;;;;;;;;;;19.40;99.90;;;;;;5068314;28;20416;-65
2023/05/04 09:07:22;;;;;;;;;;;19.40;99.90;;;;;;5076722;28;19996;-64
2023/05/04 09:09:50;;;;;;;;;;;19.40;99.90;;;;;;5093637;28;19993;-62
2023/05/04 09:12:16;;;;;;;;;;;19.40;99.90;;;;;;5093225;28;20440;-63
2023/05/04 09:14:43;;;;;;;;;;;19.40;99.90;;;;;;5094894;28;19985;-61
2023/05/04 09:17:16;;;;;;;;;;;19.50;99.90;;;;;;5084251;28;20088;-68
2023/05/04 09:19:43;;;;;;;;;;;19.50;99.90;;;;;;5092755;28;20005;-65
2023/05/04 09:22:18;;;;;;;;;;;19.50;99.90;;;;;;5077452;28;20001;-64
2023/05/04 09:24:45;;;;;;;;;;;19.70;99.90;;;;;;5091560;28;20451;-61
2023/05/04 09:27:11;;;;;;;;;;;19.70;99.90;;;;;;5089034;28;19992;-67
2023/05/04 09:29:39;;;;;;;;;;;19.80;99.90;;;;;;5086508;28;20037;-66
2023/05/04 09:32:06;;;;;;;;;;;19.90;99.90;;;;;;5093827;28;19989;-65
2023/05/04 09:34:32;;;;;;;;;;;19.90;99.90;;;;;;5091092;28;20035;-63
2023/05/04 09:37:00;;;;;;;;;;;19.90;99.90;;;;;;5073965;28;19992;-63
2023/05/04 09:39:26;;;;;;;;;;;19.90;99.90;;;;;;5074059;28;20028;-65
2023/05/04 09:41:51;;;;;;;;;;;20.00;99.90;;;;;;5068818;28;19989;-65
2023/05/04 09:44:17;;;;;;;;;;;19.90;97.20;;;;;;5072291;28;20299;-69
2023/05/04 09:46:50;;;;;;;;;;;20.00;98.70;;;;;;5088700;28;19985;-63
2023/05/04 09:49:17;;;;;;;;;;;20.00;97.70;;;;;;5084272;28;19993;-62
2023/05/04 09:51:43;;;;;;;;;;;20.10;99.20;;;;;;5090958;28;19989;-63
2023/05/04 09:54:09;;;;;;;;;;;20.20;96.50;;;;;;5091462;28;19996;-65
2023/05/04 09:56:45;;;;;;;;;;;20.20;94.90;;;;;;5089103;28;20082;-63
2023/05/04 09:59:11;;;;;;;;;;;20.30;95.50;;;;;;5074329;28;20010;-60
2023/05/04 10:01:37;;;;;;;;;;;20.40;95.90;;;;;;5068457;28;20351;-64
2023/05/04 10:04:03;;;;;;;;;;;20.40;94.30;;;;;;5070691;28;19989;-65
2023/05/04 10:06:31;;;;;;;;;;;20.40;94.50;;;;;;5069609;28;20081;-65
2023/05/04 10:08:58;;;;;;;;;;;20.40;93.30;;;;;;5070568;28;20080;-65
2023/05/04 10:11:24;;;;;;;;;;;20.40;94.20;;;;;;5070818;28;19985;-63
2023/05/04 10:13:50;;;;;;;;;;;20.40;95.50;;;;;;5070931;28;19985;-64
2023/05/04 10:16:32;;;;;;;;;;;20.40;96.40;;;;;;5071534;28;20039;-65
2023/05/04 10:18:57;;;;;;;;;;;20.40;96.30;;;;;;5071958;28;20375;-64
2023/05/04 10:21:41;;;;;;;;;;;20.40;96.70;;;;;;5071708;28;20285;-62
2023/05/04 10:24:06;;;;;;;;;;;20.50;93.10;;;;;;5071698;28;19999;-63
2023/05/04 10:26:40;;;;;;;;;;;20.40;95.50;;;;;;5087682;28;20067;-66
2023/05/04 10:29:15;;;;;;;;;;;20.30;95.30;;;;;;5089021;28;20024;-60
2023/05/04 10:31:42;;;;;;;;;;;20.30;95.20;;;;;;5088514;28;20050;-62
2023/05/04 10:34:08;;;;;;;;;;;20.30;96.30;;;;;;5089072;28;20001;-62
2023/05/04 10:36:42;;;;;;;;;;;20.30;94.50;;;;;;5091536;28;20001;-63
2023/05/04 10:39:18;;;;;;;;;;;20.40;95.20;;;;;;5091528;28;20034;-64
2023/05/04 10:42:03;;;;;;;;;;;20.20;94.20;;;;;;5089114;28;19992;-63
2023/05/04 10:44:33;;;;;;;;;;;20.20;95.50;;;;;;5093219;28;19996;-60
2023/05/04 10:47:02;;;;;;;;;;;20.20;95.30;;;;;;5090665;28;20070;-63
2023/05/04 10:49:28;;;;;;;;;;;20.10;94.70;;;;;;5095408;28;20032;-61
2023/05/04 10:52:23;;;;;;;;;;;20.20;96.50;;;;;;5088286;28;20086;-61
2023/05/04 10:54:57;;;;;;;;;;;20.30;95.80;;;;;;5066290;28;19994;-62
2023/05/04 10:57:22;;;;;;;;;;;20.50;94.40;;;;;;5071014;28;19993;-61
2023/05/04 10:59:58;;;;;;;;;;;20.70;92.20;;;;;;5071759;28;20032;-61
2023/05/04 11:02:24;;;;;;;;;;;20.90;90.40;;;;;;5070568;28;19989;-62
2023/05/04 11:05:01;;;;;;;;;;;20.90;88.50;;;;;;5071597;28;20101;-63
2023/05/04 11:07:37;;;;;;;;;;;20.80;91.00;;;;;;5079998;28;20470;-60
2023/05/04 11:10:03;;;;;;;;;;;20.80;90.60;;;;;;5081694;28;19989;-64
2023/05/04 11:12:30;;;;;;;;;;;20.70;89.50;;;;;;5102386;28;20045;-61
2023/05/04 11:15:10;;;;;;;;;;;20.70;93.00;;;;;;5099072;28;20138;-64
2023/05/04 11:17:58;;;;;;;;;;;20.50;93.40;;;;;;5091081;28;20050;-61
2023/05/04 11:20:25;;;;;;;;;;;20.30;95.00;;;;;;5097799;28;19989;-61
2023/05/04 11:23:09;;;;;;;;;;;20.20;95.70;;;;;;5099081;28;19985;-62
2023/05/04 11:25:36;;;;;;;;;;;19.90;98.70;;;;;;5080600;28;20425;-60
2023/05/04 11:28:02;;;;;;;;;;;19.70;99.90;;;;;;5095994;28;19993;-63
2023/05/04 11:30:34;;;;;;;;;;;19.40;99.90;;;;;;5099495;28;20407;-62
2023/05/04 11:33:00;;;;;;;;;;;19.40;99.90;;;;;;5095192;28;19995;-63
2023/05/04 11:35:29;;;;;;;;;;;19.40;99.90;;;;;;5100941;28;20039;-62
2023/05/04 11:37:55;;;;;;;;;;;19.40;99.90;;;;;;5092913;28;20107;-61
2023/05/04 11:40:22;;;;;;;;;;;19.50;99.90;;;;;;5085407;28;20021;-61
2023/05/04 11:43:08;;;;;;;;;;;19.50;99.90;;;;;;5096452;28;19989;-63
2023/05/04 11:45:36;;;;;;;;;;;19.50;99.90;;;;;;5095200;28;20450;-64
2023/05/04 11:48:02;;;;;;;;;;;19.50;99.90;;;;;;5088357;28;19989;-64
2023/05/04 11:50:28;;;;;;;;;;;19.70;99.90;;;;;;5093428;28;20034;-62
2023/05/04 11:53:07;;;;;;;;;;;19.80;99.90;;;;;;5092855;28;20340;-61
2023/05/04 11:55:33;;;;;;;;;;;20.10;99.90;;;;;;5093539;28;19989;-62
2023/05/04 11:58:01;;;;;;;;;;;20.30;99.90;;;;;;5090538;28;20360;-62
2023/05/04 12:00:40;;;;;;;;;;;20.50;99.90;;;;;;5091167;28;20435;-63
2023/05/04 12:03:07;;;;;;;;;;;20.70;99.90;;;;;;5091111;28;19984;-61
2023/05/04 12:05:33;;;;;;;;;;;20.70;99.90;;;;;;5094248;28;20000;-63
2023/05/04 12:07:59;;;;;;;;;;;20.60;99.90;;;;;;5091521;28;20038;-62
2023/05/04 12:10:26;;;;;;;;;;;20.60;99.90;;;;;;5086507;28;20628;-63
2023/05/04 12:12:51;;;;;;;;;;;20.70;99.90;;;;;;5097219;28;20084;-62
2023/05/04 12:15:26;;;;;;;;;;;20.90;99.90;;;;;;5104407;28;20081;-62
2023/05/04 12:17:52;;;;;;;;;;;20.80;99.90;;;;;;5100505;28;19991;-62
2023/05/04 12:20:25;;;;;;;;;;;21.00;99.90;;;;;;5097270;28;20428;-63
2023/05/04 12:22:50;;;;;;;;;;;21.20;99.90;;;;;;5081475;28;20466;-65
2023/05/04 12:25:22;;;;;;;;;;;21.40;98.60;;;;;;5102638;28;19993;-64
2023/05/04 12:27:48;;;;;;;;;;;21.40;99.90;;;;;;5096041;28;20047;-63
2023/05/04 12:30:13;;;;;;;;;;;21.40;97.10;;;;;;5099606;28;20036;-61
2023/05/04 12:32:40;;;;;;;;;;;21.40;99.90;;;;;;5093648;28;19989;-63
2023/05/04 12:35:06;;;;;;;;;;;21.20;99.50;;;;;;5091755;28;20406;-63
2023/05/04 12:37:32;;;;;;;;;;;21.10;99.60;;;;;;5096721;28;20005;-61
2023/05/04 12:39:57;;;;;;;;;;;21.10;97.30;;;;;;5098616;28;20023;-62
2023/05/04 12:42:23;;;;;;;;;;;21.10;98.70;;;;;;5082178;28;20443;-63
2023/05/04 12:44:49;;;;;;;;;;;21.10;96.60;;;;;;5075328;28;20443;-61
2023/05/04 12:47:16;;;;;;;;;;;21.10;97.00;;;;;;5074088;28;20035;-63
2023/05/04 12:49:42;;;;;;;;;;;21.30;99.90;;;;;;5075497;28;19985;-61
2023/05/04 12:52:07;;;;;;;;;;;21.50;99.90;;;;;;5074380;28;20013;-63
2023/05/04 12:54:33;;;;;;;;;;;21.80;94.40;;;;;;5075527;28;20356;-62
2023/05/04 12:56:59;;;;;;;;;;;21.80;96.10;;;;;;5075583;28;19996;-61
2023/05/04 12:59:25;;;;;;;;;;;21.60;92.00;;;;;;5074300;28;20509;-63
2023/05/04 13:01:50;;;;;;;;;;;21.80;94.90;;;;;;5073645;28;20451;-63
2023/05/04 13:04:16;;;;;;;;;;;21.90;85.00;;;;;;5073724;28;20031;-63
2023/05/04 13:06:42;;;;;;;;;;;22.10;92.60;;;;;;5072845;28;19990;-62
2023/05/04 13:09:07;;;;;;;;;;;22.10;80.10;;;;;;5073151;28;19985;-63
2023/05/04 13:11:33;;;;;;;;;;;21.80;81.00;;;;;;5072582;28;20440;-63
2023/05/04 13:13:59;;;;;;;;;;;21.60;88.80;;;;;;5073549;28;19997;-62
2023/05/04 13:16:26;;;;;;;;;;;21.70;81.60;;;;;;5074333;28;20363;-62
2023/05/04 13:18:58;;;;;;;;;;;21.60;85.60;;;;;;5074382;28;20005;-63
2023/05/04 13:21:23;;;;;;;;;;;21.90;84.80;;;;;;5074679;28;19991;-61
2023/05/04 13:23:49;;;;;;;;;;;22.10;84.60;;;;;;5075511;28;20358;-62
2023/05/04 13:26:15;;;;;;;;;;;22.20;78.70;;;;;;5075261;28;19989;-62
2023/05/04 13:28:41;;;;;;;;;;;22.50;73.60;;;;;;5075184;28;19992;-63
2023/05/04 13:31:08;;;;;;;;;;;22.70;70.00;;;;;;5075152;28;20012;-62
2023/05/04 13:33:34;;;;;;;;;;;22.80;68.80;;;;;;5075210;28;19985;-62
2023/05/04 13:36:00;;;;;;;;;;;22.70;66.80;;;;;;5075001;28;20038;-62
2023/05/04 13:38:26;;;;;;;;;;;22.40;67.20;;;;;;5074669;28;20013;-61
2023/05/04 13:40:52;;;;;;;;;;;22.10;70.10;;;;;;5074888;28;19985;-63
2023/05/04 13:43:18;;;;;;;;;;;22.10;71.40;;;;;;5074877;28;19990;-63
2023/05/04 13:45:43;;;;;;;;;;;22.20;71.20;;;;;;5075037;28;19990;-63
2023/05/04 13:48:09;;;;;;;;;;;22.30;73.00;;;;;;5074903;28;20469;-61
2023/05/04 13:50:34;;;;;;;;;;;22.30;74.50;;;;;;5074389;28;20008;-62
2023/05/04 13:53:01;;;;;;;;;;;22.20;78.90;;;;;;5074559;28;19990;-62
2023/05/04 13:55:27;;;;;;;;;;;22.20;73.80;;;;;;5074776;28;20358;-63
2023/05/04 13:57:52;;;;;;;;;;;22.20;73.20;;;;;;5074542;28;19986;-62
2023/05/04 14:00:18;;;;;;;;;;;22.00;76.50;;;;;;5074522;28;20502;-62
2023/05/04 14:02:44;;;;;;;;;;;22.10;77.80;;;;;;5074768;28;19993;-62
2023/05/04 14:05:09;;;;;;;;;;;22.30;73.20;;;;;;5074419;28;19990;-62
2023/05/04 14:07:35;;;;;;;;;;;22.40;72.90;;;;;;5074441;28;19993;-63
2023/05/04 14:10:01;;;;;;;;;;;22.50;67.50;;;;;;5074502;28;20484;-62
2023/05/04 14:12:27;;;;;;;;;;;22.50;68.70;;;;;;5074361;28;19985;-61
2023/05/04 14:14:53;;;;;;;;;;;22.50;65.60;;;;;;5074254;28;19993;-63